createdAt,value
2023-05-16T00:02:16.588Z,8.20
2023-05-16T00:04:51.888Z,2.43
2023-05-16T00:07:24.772Z,2.20
2023-05-16T00:09:56.561Z,2.40
2023-05-16T00:12:25.671Z,2.67
2023-05-16T00:14:55.940Z,2.83
2023-05-16T00:17:29.044Z,2.77
2023-05-16T00:20:15.157Z,2.93
2023-05-16T00:22:43.978Z,2.50
2023-05-16T00:25:22.455Z,2.40
2023-05-16T00:28:04.591Z,2.40
2023-05-16T00:30:37.583Z,2.13
2023-05-16T00:33:08.671Z,2.27
2023-05-16T00:35:39.216Z,2.40
2023-05-16T00:38:09.804Z,2.30
2023-05-16T00:40:44.654Z,3.00
2023-05-16T00:43:12.867Z,2.00
2023-05-16T00:45:42.321Z,2.00
2023-05-16T00:48:16.255Z,2.27
2023-05-16T00:51:09.505Z,1.90
2023-05-16T00:53:40.285Z,1.90
2023-05-16T00:56:11.173Z,2.53
2023-05-16T00:58:48.711Z,2.40
2023-05-16T01:01:19.122Z,2.07
2023-05-16T01:03:53.689Z,2.30
2023-05-16T01:06:27.998Z,1.93
2023-05-16T01:08:58.836Z,2.27
2023-05-16T01:11:34.558Z,2.30
2023-05-16T01:14:11.456Z,2.20
2023-05-16T01:16:44.787Z,1.97
2023-05-16T01:19:24.800Z,2.40
2023-05-16T01:22:04.530Z,2.30
2023-05-16T01:24:38.003Z,2.37
2023-05-16T01:27:17.690Z,2.87
2023-05-16T01:29:51.925Z,2.63
2023-05-16T01:32:22.848Z,2.90
2023-05-16T01:34:57.246Z,2.40
2023-05-16T01:37:33.214Z,2.30
2023-05-16T01:40:13.104Z,3.90
2023-05-16T01:42:48.363Z,2.60
2023-05-16T01:45:24.625Z,2.30
2023-05-16T01:48:04.753Z,2.00
2023-05-16T01:50:43.755Z,2.87
2023-05-16T01:53:24.160Z,2.63
2023-05-16T01:55:53.877Z,1.60
2023-05-16T01:58:32.290Z,2.13
2023-05-16T02:01:14.001Z,4.40
2023-05-16T02:03:45.441Z,1.80
2023-05-16T02:06:17.020Z,2.03
2023-05-16T02:08:45.886Z,2.77
2023-05-16T02:11:14.156Z,2.10
2023-05-16T02:13:54.795Z,3.90
2023-05-16T02:16:33.293Z,2.47
2023-05-16T02:19:11.100Z,2.40
2023-05-16T02:21:47.324Z,3.13
2023-05-16T02:24:23.547Z,2.50
2023-05-16T02:26:53.609Z,2.73
2023-05-16T02:29:25.581Z,2.20
2023-05-16T02:31:56.102Z,2.40
2023-05-16T02:34:27.842Z,4.40
2023-05-16T02:36:58.730Z,1.90
2023-05-16T02:39:27.520Z,2.23
2023-05-16T02:41:56.486Z,2.40
2023-05-16T02:44:31.377Z,2.27
2023-05-16T02:47:18.109Z,3.00
2023-05-16T02:49:46.134Z,4.70
2023-05-16T02:52:25.141Z,2.00
2023-05-16T02:55:21.171Z,1.97
2023-05-16T02:57:54.124Z,2.10
2023-05-16T03:00:29.361Z,2.50
2023-05-16T03:03:00.309Z,2.33
2023-05-16T03:05:31.073Z,2.20
2023-05-16T03:08:05.865Z,2.97
2023-05-16T03:10:36.460Z,6.50
2023-05-16T03:13:04.668Z,2.60
2023-05-16T03:15:37.483Z,2.60
2023-05-16T03:18:06.179Z,3.10
2023-05-16T03:20:38.164Z,6.03
2023-05-16T03:23:08.405Z,2.37
2023-05-16T03:25:49.392Z,1.80
2023-05-16T03:28:23.223Z,2.20
2023-05-16T03:31:01.367Z,2.23
2023-05-16T03:33:41.128Z,2.57
2023-05-16T03:36:13.417Z,2.40
2023-05-16T03:38:48.763Z,2.47
2023-05-16T03:41:18.376Z,2.93
2023-05-16T03:43:50.040Z,2.37
2023-05-16T03:46:24.160Z,4.73
2023-05-16T03:48:54.682Z,2.83
2023-05-16T03:51:23.349Z,2.40
2023-05-16T03:53:53.147Z,2.30
2023-05-16T03:56:23.739Z,2.37
2023-05-16T03:58:54.451Z,2.13
2023-05-16T04:01:29.815Z,2.43
2023-05-16T04:03:58.037Z,2.70
2023-05-16T04:06:28.505Z,2.80
2023-05-16T04:08:59.968Z,2.60
2023-05-16T04:11:28.240Z,2.57
2023-05-16T04:14:00.129Z,3.00
2023-05-16T04:16:33.175Z,2.83
2023-05-16T04:19:05.890Z,3.10
2023-05-16T04:21:36.700Z,2.60
2023-05-16T04:24:06.103Z,2.47
2023-05-16T04:26:38.637Z,3.87
2023-05-16T04:29:15.482Z,4.03
2023-05-16T04:31:45.996Z,2.50
2023-05-16T04:34:21.005Z,2.60
2023-05-16T04:36:49.119Z,2.50
2023-05-16T04:39:20.788Z,2.80
2023-05-16T04:41:51.621Z,3.00
2023-05-16T04:44:32.520Z,2.53
2023-05-16T04:47:07.502Z,2.60
2023-05-16T04:49:38.845Z,2.93
2023-05-16T04:52:14.052Z,4.60
2023-05-16T04:54:43.426Z,3.00
2023-05-16T04:57:16.914Z,2.90
2023-05-16T04:59:48.876Z,3.90
2023-05-16T05:02:23.637Z,3.20
2023-05-16T05:04:53.668Z,2.57
2023-05-16T05:07:24.080Z,4.40
2023-05-16T05:10:05.419Z,6.00
2023-05-16T05:12:43.034Z,3.87
2023-05-16T05:15:13.251Z,3.27
2023-05-16T05:17:58.926Z,3.63
2023-05-16T05:20:41.292Z,3.47
2023-05-16T05:23:12.500Z,3.67
2023-05-16T05:25:44.542Z,3.70
2023-05-16T05:28:17.668Z,4.93
2023-05-16T05:30:48.561Z,4.37
2023-05-16T05:33:20.601Z,4.50
2023-05-16T05:35:55.964Z,3.73
2023-05-16T05:38:30.578Z,4.30
2023-05-16T05:40:58.873Z,4.43
2023-05-16T05:43:30.573Z,4.00
2023-05-16T05:46:04.499Z,3.83
2023-05-16T05:48:43.660Z,3.83
2023-05-16T05:51:17.051Z,3.77
2023-05-16T05:53:46.947Z,3.77
2023-05-16T05:56:28.830Z,3.90
2023-05-16T05:59:09.557Z,6.03
2023-05-16T06:01:41.193Z,3.10
2023-05-16T06:04:13.745Z,2.67
2023-05-16T06:06:52.206Z,3.40
2023-05-16T06:09:22.678Z,3.53
2023-05-16T06:11:53.436Z,3.63
2023-05-16T06:14:23.414Z,3.43
2023-05-16T06:16:52.446Z,3.80
2023-05-16T06:19:25.154Z,3.20
2023-05-16T06:21:57.292Z,3.63
2023-05-16T06:24:30.852Z,2.97
2023-05-16T06:27:04.753Z,4.20
2023-05-16T06:29:34.789Z,4.63
2023-05-16T06:32:04.073Z,3.13
2023-05-16T06:34:52.634Z,3.43
2023-05-16T06:37:21.293Z,3.77
2023-05-16T06:39:50.744Z,3.53
2023-05-16T06:42:23.621Z,3.40
2023-05-16T06:44:55.268Z,3.33
2023-05-16T06:47:24.904Z,3.60
2023-05-16T06:50:06.667Z,3.70
2023-05-16T06:52:44.900Z,3.80
2023-05-16T06:55:16.194Z,4.73
2023-05-16T06:57:46.437Z,3.33
2023-05-16T07:00:28.360Z,5.17
2023-05-16T07:02:56.638Z,5.23
2023-05-16T07:05:29.700Z,5.63
2023-05-16T07:08:00.709Z,6.93
2023-05-16T07:10:29.707Z,5.13
2023-05-16T07:13:04.141Z,4.23
2023-05-16T07:15:34.039Z,4.90
2023-05-16T07:18:03.910Z,8.57
2023-05-16T07:20:41.034Z,4.97
2023-05-16T07:23:11.504Z,3.90
2023-05-16T07:25:56.983Z,3.40
2023-05-16T07:28:27.780Z,4.47
2023-05-16T07:30:58.785Z,3.37
2023-05-16T07:33:29.721Z,7.67
2023-05-16T07:36:16.714Z,4.30
2023-05-16T07:38:48.362Z,4.40
2023-05-16T07:41:17.006Z,8.87
2023-05-16T07:43:47.010Z,4.00
2023-05-16T07:46:17.907Z,5.13
2023-05-16T07:48:59.638Z,4.40
2023-05-16T07:51:34.793Z,4.60
2023-05-16T07:54:05.173Z,4.47
2023-05-16T07:56:39.364Z,5.10
2023-05-16T07:59:10.112Z,5.80
2023-05-16T08:01:43.971Z,4.70
2023-05-16T08:04:14.779Z,7.27
2023-05-16T08:06:55.347Z,4.73
2023-05-16T08:09:24.548Z,8.50
2023-05-16T08:11:55.374Z,4.30
2023-05-16T08:14:32.498Z,4.80
2023-05-16T08:17:04.555Z,4.90
2023-05-16T08:19:33.185Z,7.40
2023-05-16T08:22:12.430Z,5.30
2023-05-16T08:24:42.200Z,4.90
2023-05-16T08:27:19.275Z,5.40
2023-05-16T08:29:47.343Z,4.73
2023-05-16T08:32:15.564Z,4.27
2023-05-16T08:34:45.156Z,5.30
2023-05-16T08:37:17.516Z,10.53
2023-05-16T08:39:48.649Z,9.60
2023-05-16T08:42:22.603Z,6.03
2023-05-16T08:44:53.534Z,6.67
2023-05-16T08:47:30.526Z,6.03
2023-05-16T08:50:02.801Z,6.80
2023-05-16T08:52:37.330Z,8.13
2023-05-16T08:55:11.322Z,7.63
2023-05-16T08:57:46.481Z,6.57
2023-05-16T09:00:22.839Z,8.50
2023-05-16T09:02:51.920Z,5.87
2023-05-16T09:08:12.988Z,7.67
2023-05-16T09:10:41.544Z,6.93
2023-05-16T09:13:13.126Z,6.27
2023-05-16T09:15:45.001Z,5.80
2023-05-16T09:18:28.962Z,6.77
2023-05-16T09:21:04.308Z,6.30
2023-05-16T09:23:37.433Z,7.10
2023-05-16T09:26:13.119Z,7.20
2023-05-16T09:28:43.524Z,7.53
2023-05-16T09:31:23.093Z,7.10
2023-05-16T09:33:57.017Z,8.13
2023-05-16T09:36:25.506Z,8.57
2023-05-16T09:39:00.274Z,8.13
2023-05-16T09:41:31.748Z,7.90
2023-05-16T09:44:02.616Z,8.27
2023-05-16T09:46:33.172Z,7.60
2023-05-16T09:49:04.116Z,8.50
2023-05-16T09:51:35.476Z,8.10
2023-05-16T09:54:08.833Z,7.93
2023-05-16T09:56:52.009Z,7.80
2023-05-16T09:59:28.580Z,8.40
2023-05-16T10:02:00.294Z,12.63
2023-05-16T10:04:31.138Z,8.23
2023-05-16T10:07:03.735Z,7.80
2023-05-16T10:09:45.024Z,8.40
2023-05-16T10:12:14.815Z,7.53
2023-05-16T10:14:52.758Z,8.33
2023-05-16T10:17:24.666Z,7.63
2023-05-16T10:19:54.228Z,8.27
2023-05-16T10:22:25.847Z,14.20
2023-05-16T10:25:01.577Z,8.30
2023-05-16T10:27:40.678Z,9.20
2023-05-16T10:30:10.268Z,9.67
2023-05-16T10:32:49.700Z,10.13
2023-05-16T10:35:19.946Z,13.67
2023-05-16T10:37:52.421Z,11.20
2023-05-16T10:40:28.253Z,11.20
2023-05-16T10:43:00.924Z,10.40
2023-05-16T10:45:33.792Z,12.40
2023-05-16T10:48:07.573Z,10.63
2023-05-16T10:50:38.294Z,10.70
2023-05-16T10:53:36.050Z,10.47
2023-05-16T10:56:12.411Z,10.77
2023-05-16T10:58:51.080Z,11.10
2023-05-16T11:01:24.679Z,14.33
2023-05-16T11:04:07.754Z,10.90
2023-05-16T11:06:44.949Z,13.73
2023-05-16T11:09:49.249Z,14.13
2023-05-16T11:12:24.188Z,12.23
2023-05-16T11:14:56.067Z,10.20
2023-05-16T11:17:30.511Z,12.70
2023-05-16T11:20:04.222Z,13.67
2023-05-16T11:22:38.725Z,10.47
2023-05-16T11:25:10.800Z,10.60
2023-05-16T11:27:51.767Z,12.03
2023-05-16T11:30:31.685Z,10.90
2023-05-16T11:33:01.029Z,9.90
2023-05-16T11:35:33.785Z,10.73
2023-05-16T11:38:11.564Z,10.60
2023-05-16T11:40:53.596Z,12.87
2023-05-16T11:43:31.529Z,9.53
2023-05-16T11:46:02.050Z,12.70
2023-05-16T11:48:36.316Z,9.70
2023-05-16T11:51:18.425Z,9.53
2023-05-16T11:54:00.278Z,11.80
2023-05-16T11:56:31.927Z,9.77
2023-05-16T11:59:05.829Z,11.17
2023-05-16T12:01:35.644Z,12.23
2023-05-16T12:04:04.378Z,11.93
2023-05-16T12:06:34.434Z,11.97
2023-05-16T12:09:12.892Z,11.80
2023-05-16T12:11:44.291Z,12.60
2023-05-16T12:14:28.060Z,11.43
2023-05-16T12:16:56.357Z,10.67
2023-05-16T12:19:27.043Z,14.90
2023-05-16T12:21:57.064Z,13.10
2023-05-16T12:24:31.821Z,11.20
2023-05-16T12:27:02.750Z,11.17
2023-05-16T12:29:37.862Z,10.33
2023-05-16T12:32:11.757Z,13.57
2023-05-16T12:34:54.975Z,10.50
2023-05-16T12:37:25.353Z,9.90
2023-05-16T12:39:53.857Z,10.17
2023-05-16T12:42:25.025Z,13.63
2023-05-16T12:44:59.822Z,10.70
2023-05-16T12:47:37.491Z,9.60
2023-05-16T12:50:25.222Z,10.40
2023-05-16T12:53:08.510Z,10.47
2023-05-16T12:55:37.073Z,9.40
2023-05-16T12:58:06.579Z,9.40
2023-05-16T13:00:39.136Z,12.17
2023-05-16T13:03:17.225Z,11.20
2023-05-16T13:05:51.094Z,12.40
2023-05-16T13:08:23.768Z,11.00
2023-05-16T13:11:01.861Z,10.00
2023-05-16T13:13:42.601Z,10.87
2023-05-16T13:16:14.708Z,11.43
2023-05-16T13:18:46.352Z,12.13
2023-05-16T13:21:17.864Z,10.60
2023-05-16T13:23:57.519Z,11.03
2023-05-16T13:26:29.077Z,9.80
2023-05-16T13:28:59.451Z,10.37
2023-05-16T13:31:37.126Z,10.80
2023-05-16T13:34:08.036Z,10.53
2023-05-16T13:36:53.010Z,11.03
2023-05-16T13:39:25.679Z,11.40
2023-05-16T13:41:56.463Z,10.43
2023-05-16T13:44:25.089Z,10.47
2023-05-16T13:46:56.980Z,11.63
2023-05-16T13:49:26.971Z,11.10
2023-05-16T13:52:05.621Z,13.37
2023-05-16T13:54:36.128Z,10.33
2023-05-16T13:57:08.101Z,10.80
2023-05-16T14:00:05.771Z,10.50
2023-05-16T14:02:30.507Z,10.33
2023-05-16T14:05:01.796Z,9.77
2023-05-16T14:07:32.062Z,11.57
2023-05-16T14:10:02.397Z,10.00
2023-05-16T14:12:37.400Z,9.50
2023-05-16T14:15:10.334Z,10.80
2023-05-16T14:17:52.279Z,10.37
2023-05-16T14:20:23.510Z,10.90
2023-05-16T14:22:51.633Z,10.03
2023-05-16T14:25:21.954Z,11.73
2023-05-16T14:27:54.149Z,11.13
2023-05-16T14:30:27.060Z,11.17
2023-05-16T14:32:57.603Z,11.63
2023-05-16T14:35:26.797Z,11.93
2023-05-16T14:38:00.105Z,11.10
2023-05-16T14:40:32.064Z,13.57
2023-05-16T14:43:06.996Z,17.40
2023-05-16T14:45:36.722Z,11.63
2023-05-16T14:48:12.010Z,10.90
2023-05-16T14:50:40.994Z,11.30
2023-05-16T14:53:21.414Z,13.30
2023-05-16T14:55:50.124Z,10.50
2023-05-16T14:58:20.236Z,11.93
2023-05-16T15:00:51.230Z,10.20
2023-05-16T15:03:22.840Z,10.53
2023-05-16T15:05:59.186Z,12.87
2023-05-16T15:08:29.639Z,15.20
2023-05-16T15:11:03.317Z,10.70
2023-05-16T15:13:34.579Z,11.60
2023-05-16T15:16:06.897Z,11.60
2023-05-16T15:18:41.689Z,13.87
2023-05-16T15:21:11.694Z,12.50
2023-05-16T15:23:46.767Z,12.10
2023-05-16T15:26:30.512Z,11.13
2023-05-16T15:29:01.224Z,10.50
2023-05-16T15:31:44.364Z,11.53
2023-05-16T15:34:19.955Z,11.37
2023-05-16T15:36:53.041Z,11.30
2023-05-16T15:39:27.604Z,11.63
2023-05-16T15:44:38.455Z,12.70
2023-05-16T15:47:22.923Z,12.23
2023-05-16T15:50:12.651Z,10.33
2023-05-16T15:52:48.000Z,11.90
2023-05-16T15:55:20.668Z,12.80
2023-05-16T15:57:54.824Z,11.27
2023-05-16T16:00:25.134Z,12.30
2023-05-16T16:02:54.778Z,13.70
2023-05-16T16:05:25.493Z,12.90
2023-05-16T16:08:04.070Z,12.97
2023-05-16T16:10:34.243Z,12.60
2023-05-16T16:13:07.147Z,12.63
2023-05-16T16:15:39.943Z,12.40
2023-05-16T16:18:21.166Z,12.27
2023-05-16T16:21:08.993Z,11.67
2023-05-16T16:23:39.187Z,11.97
2023-05-16T16:26:19.571Z,13.23
2023-05-16T16:28:59.317Z,13.10
2023-05-16T16:31:34.556Z,13.60
2023-05-16T16:34:04.066Z,14.83
2023-05-16T16:36:48.647Z,12.57
2023-05-16T16:39:33.334Z,13.33
2023-05-16T16:42:14.713Z,13.20
2023-05-16T16:44:46.142Z,13.50
2023-05-16T16:47:19.473Z,15.53
2023-05-16T16:49:51.032Z,15.70
2023-05-16T16:52:22.943Z,14.17
2023-05-16T16:55:05.242Z,14.90
2023-05-16T16:57:39.296Z,15.13
2023-05-16T17:00:16.568Z,14.63
2023-05-16T17:02:52.574Z,14.50
2023-05-16T17:05:28.158Z,14.70
2023-05-16T17:08:00.518Z,15.10
2023-05-16T17:10:31.014Z,15.20
2023-05-16T17:13:13.430Z,15.97
2023-05-16T17:15:46.345Z,15.37
2023-05-16T17:18:27.426Z,16.10
2023-05-16T17:21:12.114Z,14.97
2023-05-16T17:23:51.650Z,15.07
2023-05-16T17:26:20.969Z,15.73
2023-05-16T17:29:00.954Z,14.97
2023-05-16T17:31:31.196Z,15.30
2023-05-16T17:34:16.728Z,14.10
2023-05-16T17:36:54.988Z,13.70
2023-05-16T17:39:44.473Z,16.37
2023-05-16T17:42:17.932Z,14.40
2023-05-16T17:44:47.657Z,14.43
2023-05-16T17:47:17.489Z,15.00
2023-05-16T17:49:52.164Z,15.03
2023-05-16T17:52:29.846Z,14.03
2023-05-16T17:55:14.234Z,15.40
2023-05-16T17:57:47.974Z,13.50
2023-05-16T18:00:23.460Z,15.03
2023-05-16T18:02:54.602Z,13.80
2023-05-16T18:05:24.419Z,13.97
2023-05-16T18:07:54.255Z,14.43
2023-05-16T18:10:50.479Z,16.67
2023-05-16T18:13:26.704Z,13.97
2023-05-16T18:15:57.865Z,14.00
2023-05-16T18:18:38.394Z,15.30
2023-05-16T18:21:17.010Z,16.07
2023-05-16T18:23:48.132Z,15.20
2023-05-16T18:26:23.524Z,14.27
2023-05-16T18:28:53.478Z,14.40
2023-05-16T18:31:36.003Z,14.43
2023-05-16T18:34:05.372Z,14.63
2023-05-16T18:36:39.799Z,14.70
2023-05-16T18:39:24.005Z,14.53
2023-05-16T18:42:06.383Z,13.53
2023-05-16T18:44:38.752Z,14.50
2023-05-16T18:47:11.334Z,14.73
2023-05-16T18:49:53.569Z,15.50
2023-05-16T18:52:36.847Z,17.23
2023-05-16T18:55:18.938Z,16.37
2023-05-16T18:58:03.222Z,15.27
2023-05-16T19:00:33.983Z,15.70
2023-05-16T19:03:04.503Z,14.30
2023-05-16T19:05:42.853Z,15.97
2023-05-16T19:08:12.200Z,14.57
2023-05-16T19:10:48.172Z,16.57
2023-05-16T19:13:22.980Z,16.40
2023-05-16T19:15:57.912Z,16.77
2023-05-16T19:18:28.833Z,16.80
2023-05-16T19:21:02.932Z,16.40
2023-05-16T19:23:35.473Z,17.80
2023-05-16T19:26:07.157Z,15.87
2023-05-16T19:28:45.792Z,15.93
2023-05-16T19:31:23.226Z,14.77
2023-05-16T19:33:55.196Z,14.80
2023-05-16T19:36:28.871Z,15.63
2023-05-16T19:39:01.308Z,14.80
2023-05-16T19:41:36.924Z,14.70
2023-05-16T19:44:10.948Z,14.63
2023-05-16T19:46:41.861Z,14.63
2023-05-16T19:49:18.896Z,13.47
2023-05-16T19:51:54.646Z,13.30
2023-05-16T19:54:26.994Z,12.40
2023-05-16T19:57:08.305Z,11.43
2023-05-16T19:59:41.489Z,12.00
2023-05-16T20:02:21.211Z,11.20
2023-05-16T20:05:02.329Z,11.37
2023-05-16T20:07:42.775Z,13.50
2023-05-16T20:10:18.716Z,10.70
2023-05-16T20:13:04.667Z,10.57
2023-05-16T20:15:49.221Z,10.70
2023-05-16T20:18:28.719Z,13.13
2023-05-16T20:21:09.858Z,11.73
2023-05-16T20:23:48.044Z,10.67
2023-05-16T20:26:25.753Z,11.10
2023-05-16T20:29:05.083Z,10.60
2023-05-16T20:31:47.439Z,9.57
2023-05-16T20:34:20.010Z,10.10
2023-05-16T20:36:57.457Z,9.90
2023-05-16T20:39:38.991Z,10.07
2023-05-16T20:42:11.898Z,9.73
2023-05-16T20:44:45.193Z,8.40
2023-05-16T20:47:33.689Z,9.10
2023-05-16T20:50:12.406Z,8.60
2023-05-16T20:52:42.651Z,8.60
2023-05-16T20:55:14.524Z,8.33
2023-05-16T21:00:35.378Z,7.93
2023-05-16T21:03:12.765Z,8.37
2023-05-16T21:05:49.024Z,8.20
2023-05-16T21:08:29.717Z,7.77
2023-05-16T21:11:01.535Z,7.33
2023-05-16T21:13:32.068Z,7.00
2023-05-16T21:16:00.658Z,7.17
2023-05-16T21:18:37.146Z,6.77
2023-05-16T21:21:17.345Z,7.23
2023-05-16T21:23:45.994Z,6.93
2023-05-16T21:26:17.207Z,7.23
2023-05-16T21:28:55.080Z,6.53
2023-05-16T21:31:33.124Z,6.53
2023-05-16T21:34:13.532Z,6.50
2023-05-16T21:36:42.883Z,6.77
2023-05-16T21:39:12.521Z,6.80
2023-05-16T21:41:46.943Z,5.97
2023-05-16T21:44:18.937Z,7.47
2023-05-16T21:46:50.584Z,6.60
2023-05-16T21:49:25.618Z,8.10
2023-05-16T21:51:54.855Z,8.13
2023-05-16T21:54:26.795Z,7.70
2023-05-16T21:57:02.945Z,7.70
2023-05-16T21:59:39.228Z,8.17
2023-05-16T22:02:17.611Z,7.30
2023-05-16T22:04:52.462Z,9.90
2023-05-16T22:07:29.155Z,9.33
2023-05-16T22:10:00.357Z,8.50
2023-05-16T22:12:30.416Z,8.50
2023-05-16T22:15:04.722Z,8.63
2023-05-16T22:17:35.356Z,8.73
2023-05-16T22:20:08.892Z,9.37
2023-05-16T22:22:46.635Z,9.37
2023-05-16T22:25:19.990Z,8.83
2023-05-16T22:27:49.947Z,10.60
2023-05-16T22:30:32.097Z,9.53
2023-05-16T22:33:19.976Z,9.00
2023-05-16T22:36:07.758Z,9.03
2023-05-16T22:38:44.854Z,9.83
2023-05-16T22:41:14.777Z,9.17
2023-05-16T22:43:44.169Z,9.90
2023-05-16T22:46:15.279Z,10.23
2023-05-16T22:48:45.744Z,9.30
2023-05-16T22:51:26.718Z,9.13
2023-05-16T22:53:55.565Z,9.40
2023-05-16T22:56:23.722Z,8.87
2023-05-16T22:58:55.557Z,8.97
2023-05-16T23:01:36.153Z,8.23
2023-05-16T23:04:06.655Z,8.90
2023-05-16T23:06:40.949Z,9.70
2023-05-16T23:09:13.464Z,8.23
2023-05-16T23:11:41.847Z,7.83
2023-05-16T23:14:13.347Z,9.17
2023-05-16T23:16:48.948Z,7.47
2023-05-16T23:19:20.882Z,5.87
2023-05-16T23:21:52.340Z,6.00
2023-05-16T23:24:32.077Z,6.00
2023-05-16T23:27:00.233Z,5.93
2023-05-16T23:29:29.508Z,5.73
2023-05-16T23:31:57.766Z,5.30
2023-05-16T23:34:27.293Z,5.70
2023-05-16T23:37:01.829Z,6.10
2023-05-16T23:39:31.362Z,5.27
2023-05-16T23:42:02.684Z,6.27
2023-05-16T23:44:45.860Z,5.93
2023-05-16T23:47:23.147Z,6.43
2023-05-16T23:49:54.752Z,3.90
2023-05-16T23:52:27.308Z,6.13
2023-05-16T23:54:58.920Z,4.07
2023-05-16T23:57:32.266Z,4.10
